Time;durP1;ratioP1;P1;durP2;ratioP2;P2;SDS_P1;SDS_P2;PMS_P1;PMS_P2;Temp;Humidity;BMP_temperature;BMP_pressure;BME280_temperature;BME280_humidity;BME280_pressure;Samples;Min_cycle;Max_cycle;Signal;HPM_P1;HPM_P2
2023/07/14 00:00:32;;;;;;;8.15;5.13;;;20.40;67.70;;;;;;5050050;28;20045;-64
2023/07/14 00:02:59;;;;;;;8.30;5.15;;;20.40;67.70;;;;;;5049457;28;20047;-63
2023/07/14 00:05:35;;;;;;;8.70;5.22;;;20.30;67.70;;;;;;5050768;28;20032;-64
2023/07/14 00:08:03;;;;;;;9.50;5.05;;;20.30;67.80;;;;;;5050174;28;20397;-63
2023/07/14 00:10:35;;;;;;;9.68;5.63;;;20.40;67.80;;;;;;5049446;28;20463;-64
2023/07/14 00:13:07;;;;;;;8.80;5.30;;;20.30;67.80;;;;;;5050372;28;20029;-63
2023/07/14 00:15:35;;;;;;;8.90;5.20;;;20.40;67.90;;;;;;5047620;28;20056;-63
2023/07/14 00:18:19;;;;;;;9.10;5.18;;;20.40;68.00;;;;;;5049852;28;20029;-63
2023/07/14 00:20:45;;;;;;;10.43;5.88;;;20.40;68.00;;;;;;5047698;28;20082;-63
2023/07/14 00:23:12;;;;;;;10.80;6.25;;;20.40;68.00;;;;;;5049431;28;20180;-64
2023/07/14 00:25:38;;;;;;;8.93;5.57;;;20.40;68.20;;;;;;5050910;28;20025;-64
2023/07/14 00:28:13;;;;;;;9.60;5.65;;;20.40;68.30;;;;;;5050209;28;20056;-63
2023/07/14 00:30:39;;;;;;;10.25;5.57;;;20.40;68.30;;;;;;5049220;28;20028;-63
2023/07/14 00:33:15;;;;;;;9.55;5.35;;;20.40;68.40;;;;;;5034119;28;20430;-64
2023/07/14 00:35:41;;;;;;;9.60;6.00;;;20.40;68.40;;;;;;5053328;28;20051;-64
2023/07/14 00:38:08;;;;;;;9.75;5.90;;;20.40;68.30;;;;;;5054734;28;20082;-63
2023/07/14 00:40:45;;;;;;;9.55;5.20;;;20.40;68.20;;;;;;5033981;28;20028;-64
2023/07/14 00:43:21;;;;;;;11.82;5.75;;;20.40;68.20;;;;;;5055089;28;20040;-63
2023/07/14 00:45:49;;;;;;;8.98;5.43;;;20.40;68.20;;;;;;5054127;28;20040;-64
2023/07/14 00:48:19;;;;;;;12.27;5.95;;;20.40;68.20;;;;;;5054044;28;20461;-63
2023/07/14 00:51:10;;;;;;;10.63;5.95;;;20.40;68.30;;;;;;5050116;28;20021;-64
2023/07/14 00:53:41;;;;;;;8.93;4.83;;;20.40;68.20;;;;;;5016838;28;20033;-63
2023/07/14 00:56:09;;;;;;;;;;;20.40;68.20;;;;;;5014535;28;20025;-63
2023/07/14 00:58:36;;;;;;;7.75;4.50;;;20.30;68.10;;;;;;5016902;28;19964;-64
2023/07/14 01:01:09;;;;;;;8.45;4.57;;;20.30;68.20;;;;;;5030466;28;20030;-64
2023/07/14 01:03:45;;;;;;;10.25;5.03;;;20.20;68.20;;;;;;5015995;28;20037;-63
2023/07/14 01:06:32;;;;;;;9.63;5.13;;;20.20;68.30;;;;;;5015799;28;20130;-65
2023/07/14 01:09:09;;;;;;;9.88;5.20;;;20.20;68.40;;;;;;5014362;28;20176;-64
2023/07/14 01:11:42;;;;;;;9.57;5.00;;;20.10;68.40;;;;;;5012917;28;20025;-64
2023/07/14 01:14:14;;;;;;;9.32;4.85;;;20.10;68.50;;;;;;4999585;28;20320;-64
2023/07/14 01:16:41;;;;;;;9.48;4.60;;;20.10;68.70;;;;;;5015607;28;20033;-63
2023/07/14 01:19:23;;;;;;;9.63;4.65;;;20.00;68.70;;;;;;5031748;28;20053;-63
2023/07/14 01:21:53;;;;;;;10.45;4.47;;;20.00;68.70;;;;;;5011950;28;20029;-63
2023/07/14 01:24:27;;;;;;;9.80;4.15;;;20.00;68.80;;;;;;5041641;28;20041;-64
2023/07/14 01:27:05;;;;;;;8.68;4.07;;;19.90;68.90;;;;;;5052282;28;20040;-64
2023/07/14 01:29:32;;;;;;;10.50;4.28;;;19.90;69.00;;;;;;5054494;28;20107;-63
2023/07/14 01:31:59;;;;;;;7.15;4.20;;;19.90;69.10;;;;;;5048995;28;20025;-63
2023/07/14 01:34:26;;;;;;;9.30;4.18;;;19.80;69.10;;;;;;5054459;28;20024;-63
2023/07/14 01:36:58;;;;;;;8.23;4.40;;;19.80;69.20;;;;;;5052645;28;20028;-64
2023/07/14 01:39:25;;;;;;;9.82;4.47;;;19.80;69.90;;;;;;5053648;28;20025;-64
2023/07/14 01:41:51;;;;;;;10.65;5.13;;;19.80;69.40;;;;;;5050926;28;20033;-64
2023/07/14 01:44:19;;;;;;;9.65;4.53;;;19.90;69.50;;;;;;5035832;28;20032;-64
2023/07/14 01:46:46;;;;;;;9.82;4.68;;;19.80;69.40;;;;;;5050895;28;20334;-64
2023/07/14 01:49:20;;;;;;;9.23;4.82;;;19.90;69.40;;;;;;5053647;28;20167;-64
2023/07/14 01:51:48;;;;;;;11.20;5.40;;;19.90;69.50;;;;;;5050778;28;20028;-64
2023/07/14 01:54:39;;;;;;;9.40;5.32;;;19.90;69.60;;;;;;5051940;28;20025;-64
2023/07/14 01:57:11;;;;;;;8.15;4.30;;;19.80;69.60;;;;;;5050785;28;20064;-64
2023/07/14 01:59:40;;;;;;;9.30;4.88;;;19.80;69.80;;;;;;5035596;28;20013;-63
2023/07/14 02:02:12;;;;;;;9.00;4.80;;;19.80;70.50;;;;;;5049840;28;20017;-63
2023/07/14 02:04:40;;;;;;;8.85;4.63;;;19.80;69.90;;;;;;5053882;28;20078;-63
2023/07/14 02:07:12;;;;;;;7.13;4.28;;;19.80;70.00;;;;;;5051986;28;20040;-64
2023/07/14 02:09:38;;;;;;;9.45;4.43;;;19.80;70.10;;;;;;5051737;28;20527;-64
2023/07/14 02:12:06;;;;;;;9.73;4.80;;;19.70;70.20;;;;;;5051252;28;20024;-63
2023/07/14 02:14:41;;;;;;;8.07;4.25;;;19.80;70.20;;;;;;5049659;28;20037;-63
2023/07/14 02:17:25;;;;;;;9.52;4.63;;;19.70;70.20;;;;;;5051010;28;20021;-63
2023/07/14 02:19:53;;;;;;;8.60;4.53;;;19.70;70.20;;;;;;5051428;28;20036;-63
2023/07/14 02:22:20;;;;;;;9.00;4.70;;;19.70;70.40;;;;;;5051399;28;20315;-64
2023/07/14 02:24:47;;;;;;;10.45;4.93;;;19.70;70.40;;;;;;5034986;28;20025;-64
2023/07/14 02:27:13;;;;;;;9.93;5.20;;;19.60;70.50;;;;;;5052163;28;20090;-64
2023/07/14 02:29:39;;;;;;;10.30;5.10;;;19.60;70.60;;;;;;5051704;28;20029;-63
2023/07/14 02:32:29;;;;;;;8.85;5.10;;;19.60;70.70;;;;;;5050009;28;20029;-64
2023/07/14 02:35:19;;;;;;;9.07;5.05;;;19.60;70.80;;;;;;5052448;28;20079;-64
2023/07/14 02:38:06;;;;;;;10.57;5.80;;;19.60;70.90;;;;;;5051042;28;20044;-64
2023/07/14 02:40:46;;;;;;;11.00;6.47;;;19.60;71.00;;;;;;5052647;28;20036;-63
2023/07/14 02:43:17;;;;;;;11.75;6.50;;;19.60;71.00;;;;;;5050180;28;20139;-64
2023/07/14 02:46:16;;;;;;;10.73;6.75;;;19.60;71.10;;;;;;5052290;28;20365;-64
2023/07/14 02:48:43;;;;;;;10.27;6.05;;;19.60;71.00;;;;;;5050999;28;20155;-63
2023/07/14 02:51:10;;;;;;;10.30;6.28;;;19.60;71.20;;;;;;5035228;28;20028;-64
2023/07/14 02:53:36;;;;;;;10.18;6.22;;;19.50;71.20;;;;;;5051700;28;20048;-64
2023/07/14 02:56:03;;;;;;;9.35;5.65;;;19.50;71.20;;;;;;5050469;28;20029;-64
2023/07/14 02:58:30;;;;;;;9.45;5.78;;;19.50;71.30;;;;;;5050294;28;20086;-64
2023/07/14 03:00:55;;;;;;;9.18;5.60;;;19.50;71.20;;;;;;5052534;28;20039;-63
2023/07/14 03:03:22;;;;;;;10.20;5.03;;;19.50;71.90;;;;;;5051359;28;20126;-63
2023/07/14 03:05:49;;;;;;;8.48;4.80;;;19.50;71.30;;;;;;5051129;28;20482;-63
2023/07/14 03:08:16;;;;;;;11.63;5.18;;;19.50;71.20;;;;;;5051907;28;20029;-63
2023/07/14 03:10:44;;;;;;;9.27;4.95;;;19.50;71.20;;;;;;5051590;28;20365;-63
2023/07/14 03:13:10;;;;;;;7.97;4.30;;;19.50;71.00;;;;;;5051014;28;20068;-64
2023/07/14 03:15:36;;;;;;;7.80;4.47;;;19.60;70.90;;;;;;5050707;28;20064;-63
2023/07/14 03:18:03;;;;;;;8.65;4.35;;;19.50;70.80;;;;;;5033138;28;20032;-63
2023/07/14 03:20:29;;;;;;;9.02;4.60;;;19.60;70.90;;;;;;5049476;28;20036;-63
2023/07/14 03:22:54;;;;;;;9.38;4.65;;;19.60;70.80;;;;;;5048146;28;20051;-64
2023/07/14 03:25:21;;;;;;;8.30;4.78;;;19.60;70.90;;;;;;5047406;28;20094;-63
2023/07/14 03:27:47;;;;;;;11.07;4.30;;;19.50;70.80;;;;;;5046794;28;20406;-64
2023/07/14 03:30:13;;;;;;;8.00;3.55;;;19.50;70.80;;;;;;5047809;28;20059;-63
2023/07/14 03:32:39;;;;;;;9.20;4.70;;;19.50;70.80;;;;;;5049454;28;20021;-63
2023/07/14 03:35:06;;;;;;;7.80;4.55;;;19.50;70.60;;;;;;5050570;28;20027;-63
2023/07/14 03:37:32;;;;;;;8.88;4.68;;;19.50;70.40;;;;;;5049057;28;20072;-63
2023/07/14 03:39:58;;;;;;;7.57;3.90;;;19.50;70.90;;;;;;5047400;28;20029;-63
2023/07/14 03:42:23;;;;;;;7.50;4.28;;;19.60;70.30;;;;;;5052338;28;20066;-64
2023/07/14 03:44:49;;;;;;;9.80;4.57;;;19.50;70.30;;;;;;5052021;28;20120;-64
2023/07/14 03:47:15;;;;;;;9.57;5.15;;;19.50;70.30;;;;;;5052200;28;20032;-63
2023/07/14 03:49:41;;;;;;;8.32;4.70;;;19.40;70.30;;;;;;5050867;28;20021;-63
2023/07/14 03:52:07;;;;;;;8.52;4.63;;;19.50;70.40;;;;;;5049438;28;20029;-64
2023/07/14 03:54:33;;;;;;;11.25;4.93;;;19.50;70.40;;;;;;5052455;28;20124;-63
2023/07/14 03:56:59;;;;;;;9.40;5.28;;;19.40;70.40;;;;;;5051146;28;20486;-64
2023/07/14 03:59:26;;;;;;;9.52;5.25;;;19.40;70.50;;;;;;5051261;28;20442;-63
2023/07/14 04:01:52;;;;;;;8.40;4.70;;;19.40;70.50;;;;;;5051103;28;20066;-63
2023/07/14 04:04:20;;;;;;;8.65;5.20;;;19.40;70.50;;;;;;5051476;28;20025;-64
2023/07/14 04:06:46;;;;;;;9.07;5.43;;;19.40;70.50;;;;;;5047280;28;20071;-64
2023/07/14 04:09:12;;;;;;;9.27;5.65;;;19.40;70.50;;;;;;5047976;28;20591;-64
2023/07/14 04:11:38;;;;;;;10.32;5.40;;;19.40;70.50;;;;;;5051320;28;20029;-63
2023/07/14 04:14:05;;;;;;;9.20;5.50;;;19.40;70.50;;;;;;5055730;28;20025;-64
2023/07/14 04:16:31;;;;;;;9.70;5.90;;;19.40;70.60;;;;;;5075073;28;21369;-64
2023/07/14 04:18:57;;;;;;;12.07;6.00;;;19.40;70.60;;;;;;5057129;28;20134;-63
2023/07/14 04:21:27;;;;;;;11.02;6.15;;;19.40;70.70;;;;;;5057459;28;20166;-63
2023/07/14 04:23:54;;;;;;;10.98;5.90;;;19.40;70.70;;;;;;5073286;28;20108;-63
2023/07/14 04:26:20;;;;;;;10.30;5.65;;;19.40;70.70;;;;;;5075722;28;20020;-63
2023/07/14 04:28:47;;;;;;;11.52;5.90;;;19.40;70.70;;;;;;5075272;28;20089;-63
2023/07/14 04:31:13;;;;;;;9.40;4.78;;;19.40;70.70;;;;;;5075962;28;20017;-63
2023/07/14 04:33:41;;;;;;;10.95;5.78;;;19.40;70.70;;;;;;5073156;28;20031;-63
2023/07/14 04:36:07;;;;;;;9.63;5.97;;;19.40;70.70;;;;;;5075257;28;20023;-64
2023/07/14 04:38:33;;;;;;;9.25;5.60;;;19.40;70.70;;;;;;5056587;28;20345;-64
2023/07/14 04:40:58;;;;;;;9.27;5.40;;;19.50;70.70;;;;;;5056134;28;20103;-63
2023/07/14 04:43:24;;;;;;;11.27;5.20;;;19.50;70.60;;;;;;5073071;28;20028;-64
2023/07/14 04:45:51;;;;;;;8.23;4.70;;;19.50;70.50;;;;;;5074398;28;20108;-63
2023/07/14 04:48:19;;;;;;;8.35;4.63;;;19.50;70.50;;;;;;5074294;28;20028;-64
2023/07/14 04:50:46;;;;;;;11.63;5.72;;;19.50;70.40;;;;;;5073214;28;20039;-63
2023/07/14 04:53:14;;;;;;;10.27;6.05;;;19.50;70.40;;;;;;5057997;28;20040;-63
2023/07/14 04:55:42;;;;;;;10.82;5.10;;;19.60;70.40;;;;;;5075796;28;20112;-63
2023/07/14 04:58:14;;;;;;;10.63;5.65;;;19.60;70.40;;;;;;5058395;28;20047;-63
2023/07/14 05:00:41;;;;;;;9.23;5.35;;;19.60;70.40;;;;;;5075975;28;20025;-64
2023/07/14 05:03:07;;;;;;;9.02;5.10;;;19.60;70.20;;;;;;5047823;28;20068;-64
2023/07/14 05:05:33;;;;;;;8.82;5.38;;;19.70;70.10;;;;;;5075949;28;20072;-63
2023/07/14 05:08:00;;;;;;;11.20;5.80;;;19.70;69.90;;;;;;5076033;28;20025;-63
2023/07/14 05:10:27;;;;;;;11.48;5.93;;;19.70;69.80;;;;;;5073875;28;20021;-63
2023/07/14 05:12:55;;;;;;;11.98;5.50;;;19.80;69.70;;;;;;5074724;28;20035;-64
2023/07/14 05:15:22;;;;;;;10.38;5.25;;;19.80;69.60;;;;;;5075375;28;20049;-64
2023/07/14 05:17:48;;;;;;;9.60;5.28;;;19.80;69.40;;;;;;5076292;28;20089;-64
2023/07/14 05:20:16;;;;;;;10.95;5.85;;;19.90;69.30;;;;;;5037418;28;20060;-63
2023/07/14 05:22:44;;;;;;;11.30;5.55;;;19.90;69.30;;;;;;5058610;28;20040;-64
2023/07/14 05:25:12;;;;;;;9.85;5.35;;;19.90;69.20;;;;;;5058658;28;20119;-63
2023/07/14 05:27:38;;;;;;;9.32;5.28;;;19.90;69.20;;;;;;5053445;28;20089;-63
2023/07/14 05:30:05;;;;;;;11.90;5.75;;;20.00;69.20;;;;;;5073744;28;20032;-63
2023/07/14 05:32:31;;;;;;;10.30;5.40;;;20.00;69.20;;;;;;5053144;28;20150;-65
2023/07/14 05:34:57;;;;;;;11.32;5.88;;;20.00;69.20;;;;;;5070242;28;20013;-63
2023/07/14 05:37:24;;;;;;;10.15;5.45;;;20.00;69.10;;;;;;5066526;28;20063;-66
2023/07/14 05:39:50;;;;;;;9.48;5.15;;;20.00;68.90;;;;;;5072196;28;20016;-63
2023/07/14 05:42:16;;;;;;;8.65;4.88;;;20.00;68.80;;;;;;5050789;28;20032;-62
2023/07/14 05:44:42;;;;;;;10.15;5.05;;;20.10;68.60;;;;;;5034438;28;20039;-63
2023/07/14 05:47:08;;;;;;;9.27;5.75;;;20.00;68.50;;;;;;5035833;28;20048;-63
2023/07/14 05:49:34;;;;;;;9.82;5.60;;;20.10;68.50;;;;;;5051336;28;20033;-62
2023/07/14 05:52:00;;;;;;;10.27;5.30;;;20.10;68.40;;;;;;5070103;28;20358;-62
2023/07/14 05:54:26;;;;;;;9.82;5.78;;;20.20;68.30;;;;;;5067584;28;20061;-61
2023/07/14 05:56:52;;;;;;;12.15;6.00;;;20.30;68.30;;;;;;5069367;28;20021;-61
2023/07/14 05:59:18;;;;;;;10.65;5.72;;;20.30;68.10;;;;;;5067904;28;20033;-62
2023/07/14 06:01:48;;;;;;;9.68;6.32;;;20.30;67.90;;;;;;5067725;28;20059;-61
2023/07/14 06:04:15;;;;;;;9.82;5.60;;;20.40;67.60;;;;;;5067402;28;20047;-61
2023/07/14 06:06:42;;;;;;;10.18;6.10;;;20.50;67.50;;;;;;5068906;28;20032;-62
2023/07/14 06:09:09;;;;;;;11.15;6.10;;;20.60;67.40;;;;;;5050986;28;20044;-61
2023/07/14 06:11:35;;;;;;;9.75;6.43;;;20.60;67.80;;;;;;5067794;28;20039;-62
2023/07/14 06:14:02;;;;;;;8.90;5.28;;;20.60;66.90;;;;;;5048914;28;20543;-63
2023/07/14 06:16:28;;;;;;;11.00;5.72;;;20.80;66.60;;;;;;5050411;28;20056;-62
2023/07/14 06:18:54;;;;;;;10.45;5.35;;;20.80;66.20;;;;;;5067351;28;20632;-63
2023/07/14 06:21:20;;;;;;;9.68;4.97;;;20.80;65.80;;;;;;5068803;28;20024;-62
2023/07/14 06:23:46;;;;;;;9.90;4.97;;;20.90;65.60;;;;;;5049752;28;20110;-63
2023/07/14 06:26:11;;;;;;;11.50;4.90;;;20.90;65.50;;;;;;5067977;28;20178;-63
2023/07/14 06:28:38;;;;;;;8.15;4.45;;;21.00;65.30;;;;;;5050276;28;20032;-63
2023/07/14 06:31:05;;;;;;;9.02;4.65;;;21.10;64.90;;;;;;5068680;28;20037;-63
2023/07/14 06:33:35;;;;;;;8.15;4.18;;;21.20;64.40;;;;;;5067007;28;20025;-62
2023/07/14 06:36:01;;;;;;;10.63;4.00;;;21.40;64.10;;;;;;5067642;28;20024;-62
2023/07/14 06:38:28;;;;;;;7.43;3.42;;;21.50;63.80;;;;;;5068032;28;20025;-62
2023/07/14 06:41:02;;;;;;;7.32;3.63;;;21.60;63.20;;;;;;5049409;28;20032;-62
2023/07/14 06:43:30;;;;;;;6.90;3.30;;;21.70;62.50;;;;;;5065827;28;20039;-62
2023/07/14 06:45:56;;;;;;;7.22;3.40;;;21.80;62.10;;;;;;5048975;28;20069;-62
2023/07/14 06:48:25;;;;;;;9.77;3.70;;;21.80;61.90;;;;;;5066389;28;20031;-62
2023/07/14 06:50:51;;;;;;;10.10;4.10;;;21.90;61.80;;;;;;5066090;28;20017;-62
2023/07/14 06:53:18;;;;;;;7.72;3.45;;;21.90;61.50;;;;;;5067979;28;20031;-62
2023/07/14 06:55:43;;;;;;;6.72;3.20;;;22.00;61.50;;;;;;5067989;28;20380;-64
2023/07/14 06:58:10;;;;;;;9.82;3.65;;;22.00;61.40;;;;;;5068100;28;20021;-64
2023/07/14 07:00:36;;;;;;;6.25;2.88;;;22.10;61.20;;;;;;5067841;28;20038;-61
2023/07/14 07:03:03;;;;;;;8.02;3.80;;;22.20;60.80;;;;;;5065649;28;20115;-64
2023/07/14 07:05:31;;;;;;;8.05;3.80;;;22.30;60.70;;;;;;5067883;28;21848;-64
2023/07/14 07:07:57;;;;;;;8.63;4.22;;;22.30;60.20;;;;;;5035829;28;20036;-63
2023/07/14 07:10:23;;;;;;;9.10;3.67;;;22.40;60.20;;;;;;5072311;28;20035;-64
2023/07/14 07:12:48;;;;;;;7.30;3.22;;;22.40;60.10;;;;;;5051652;28;20027;-63
2023/07/14 07:15:14;;;;;;;8.95;4.10;;;22.30;60.10;;;;;;5050678;28;20036;-65
2023/07/14 07:17:43;;;;;;;8.10;3.65;;;22.20;60.20;;;;;;5066508;28;20139;-64
2023/07/14 07:20:09;;;;;;;8.23;4.40;;;22.20;60.20;;;;;;5064201;28;20028;-65
2023/07/14 07:22:36;;;;;;;8.13;4.07;;;22.20;60.20;;;;;;5049959;28;20032;-64
2023/07/14 07:25:02;;;;;;;7.55;3.92;;;22.30;60.10;;;;;;5033760;28;20028;-64
2023/07/14 07:27:28;;;;;;;8.73;4.05;;;22.50;59.80;;;;;;5050948;28;20075;-64
2023/07/14 07:29:54;;;;;;;6.30;3.88;;;22.60;59.30;;;;;;5066665;28;20048;-64
2023/07/14 07:32:20;;;;;;;6.78;3.45;;;22.80;58.80;;;;;;5051198;28;20025;-63
2023/07/14 07:34:46;;;;;;;8.13;4.28;;;23.10;58.20;;;;;;5068871;28;20012;-65
2023/07/14 07:37:12;;;;;;;8.13;4.18;;;23.10;57.70;;;;;;5051795;28;21791;-65
2023/07/14 07:39:39;;;;;;;8.18;3.90;;;23.10;57.60;;;;;;5035113;28;20044;-65
2023/07/14 07:42:06;;;;;;;8.35;3.88;;;23.10;57.50;;;;;;5069127;28;20028;-64
2023/07/14 07:44:32;;;;;;;8.40;4.35;;;23.30;57.30;;;;;;5034532;28;20524;-64
2023/07/14 07:46:58;;;;;;;7.93;3.95;;;23.50;56.90;;;;;;5051931;28;20034;-64
2023/07/14 07:49:24;;;;;;;7.35;3.72;;;23.70;56.60;;;;;;5068436;28;20044;-63
2023/07/14 07:51:50;;;;;;;7.20;3.20;;;23.90;56.10;;;;;;5051202;28;20091;-64
2023/07/14 07:54:16;;;;;;;7.55;3.35;;;24.00;55.90;;;;;;5043743;28;20029;-64
2023/07/14 07:56:43;;;;;;;6.13;2.90;;;24.20;55.70;;;;;;5068187;28;20024;-64
2023/07/14 07:59:15;;;;;;;6.72;2.90;;;24.30;55.40;;;;;;5051831;28;20040;-64
2023/07/14 08:01:43;;;;;;;6.97;2.50;;;24.60;54.50;;;;;;5051018;28;20036;-64
2023/07/14 08:04:10;;;;;;;5.78;2.20;;;24.70;54.00;;;;;;5050927;28;20058;-64
2023/07/14 08:06:39;;;;;;;5.70;2.20;;;24.70;53.40;;;;;;5069075;28;20041;-64
2023/07/14 08:09:06;;;;;;;5.20;2.30;;;24.70;53.00;;;;;;5066114;28;20028;-64
2023/07/14 08:11:32;;;;;;;5.65;2.38;;;24.80;52.80;;;;;;5050109;28;20024;-63
2023/07/14 08:14:01;;;;;;;6.63;2.47;;;24.80;52.60;;;;;;5050710;28;20433;-64
2023/07/14 08:16:28;;;;;;;4.75;2.00;;;24.70;52.50;;;;;;5026616;28;20045;-64
2023/07/14 08:18:53;;;;;;;8.20;2.92;;;24.70;52.60;;;;;;5048381;28;20054;-64
2023/07/14 08:21:19;;;;;;;5.68;2.25;;;24.60;52.50;;;;;;5068381;28;20103;-63
2023/07/14 08:23:45;;;;;;;5.47;2.53;;;24.50;52.60;;;;;;5064337;28;20032;-65
2023/07/14 08:26:12;;;;;;;6.72;2.28;;;24.50;52.80;;;;;;5050854;28;20051;-65
2023/07/14 08:28:39;;;;;;;6.55;2.42;;;24.60;52.60;;;;;;5068476;28;20028;-65
2023/07/14 08:31:07;;;;;;;6.90;2.78;;;24.90;52.60;;;;;;5048443;28;20025;-65
2023/07/14 08:33:34;;;;;;;6.20;2.45;;;25.20;52.30;;;;;;5062823;28;20029;-67
2023/07/14 08:36:01;;;;;;;6.70;2.65;;;25.50;52.20;;;;;;5061449;28;20461;-67
2023/07/14 08:38:32;;;;;;;6.00;2.42;;;25.60;52.00;;;;;;5047330;28;20114;-67
2023/07/14 08:41:10;;;;;;;7.43;2.63;;;25.50;51.60;;;;;;5051241;28;20342;-66
2023/07/14 08:43:45;;;;;;;6.38;2.63;;;25.30;51.50;;;;;;5038160;28;20021;-67
2023/07/14 08:46:28;;;;;;;7.15;2.75;;;25.10;51.70;;;;;;5031676;28;20021;-67
2023/07/14 08:49:17;;;;;;;6.68;2.78;;;24.90;51.80;;;;;;5053342;28;20373;-66
2023/07/14 08:51:45;;;;;;;5.68;2.22;;;24.90;51.90;;;;;;5061223;28;20033;-67
2023/07/14 08:54:45;;;;;;;5.53;2.33;;;25.00;51.90;;;;;;5047537;28;20112;-67
2023/07/14 08:57:19;;;;;;;5.50;2.75;;;25.20;51.60;;;;;;5068020;28;20036;-67
2023/07/14 08:59:46;;;;;;;6.78;2.53;;;25.10;51.10;;;;;;5069381;28;20047;-66
2023/07/14 09:02:39;;;;;;;6.95;2.40;;;25.00;51.20;;;;;;5071047;28;20048;-68
2023/07/14 09:05:12;;;;;;;5.65;2.50;;;24.80;51.30;;;;;;5073173;28;20101;-68
2023/07/14 09:07:39;;;;;;;5.60;2.30;;;24.70;51.40;;;;;;5068616;28;20032;-69
2023/07/14 09:10:08;;;;;;;6.57;2.08;;;24.60;51.60;;;;;;5064649;28;20031;-68
2023/07/14 09:12:49;;;;;;;5.00;1.95;;;24.70;51.20;;;;;;5068683;28;20028;-67
2023/07/14 09:15:26;;;;;;;6.05;2.13;;;24.80;50.60;;;;;;5064946;28;20178;-66
2023/07/14 09:18:28;;;;;;;7.05;2.45;;;24.90;50.50;;;;;;5064378;28;20464;-65
2023/07/14 09:21:05;;;;;;;5.25;2.05;;;24.90;50.40;;;;;;5064567;28;20108;-65
2023/07/14 09:23:55;;;;;;;6.72;2.30;;;25.10;50.60;;;;;;5068564;28;20037;-65
2023/07/14 09:26:37;;;;;;;8.00;2.55;;;25.20;50.30;;;;;;5071799;28;20143;-64
2023/07/14 09:29:24;;;;;;;7.20;2.97;;;25.30;50.40;;;;;;5069092;28;20399;-63
2023/07/14 09:31:59;;;;;;;6.07;2.63;;;25.40;50.20;;;;;;5051294;28;20024;-62
2023/07/14 09:34:27;;;;;;;5.88;2.25;;;25.50;50.20;;;;;;5064994;28;20017;-63
2023/07/14 09:36:54;;;;;;;6.50;2.50;;;25.40;50.30;;;;;;5064021;28;20028;-62
2023/07/14 09:39:36;;;;;;;5.88;2.70;;;25.50;50.30;;;;;;5064679;28;20020;-63
2023/07/14 09:42:07;;;;;;;7.97;2.90;;;25.50;50.20;;;;;;5049817;28;20024;-62
2023/07/14 09:44:33;;;;;;;6.15;2.33;;;25.60;50.10;;;;;;5067477;28;20035;-62
2023/07/14 09:47:02;;;;;;;5.82;2.05;;;25.60;50.00;;;;;;5065473;28;20033;-62
2023/07/14 09:49:51;;;;;;;5.15;1.83;;;25.60;49.70;;;;;;5067131;28;20028;-62
2023/07/14 09:52:29;;;;;;;5.57;2.50;;;25.50;49.60;;;;;;5068676;28;20024;-62
2023/07/14 09:54:59;;;;;;;5.88;2.10;;;25.50;49.80;;;;;;5068241;28;20024;-62
2023/07/14 09:57:32;;;;;;;7.60;2.57;;;25.50;49.50;;;;;;5069273;28;20024;-63
2023/07/14 10:00:13;;;;;;;6.18;2.55;;;25.50;49.50;;;;;;5067013;28;20278;-62
2023/07/14 10:02:39;;;;;;;;;;;25.50;49.20;;;;;;5071659;28;20027;-62
2023/07/14 10:05:22;;;;;;;6.18;2.30;;;25.50;49.40;;;;;;5051522;28;19961;-62
2023/07/14 10:07:48;;;;;;;6.38;2.13;;;25.40;49.80;;;;;;5050954;28;20111;-62
2023/07/14 10:10:19;;;;;;;7.65;2.25;;;25.30;49.90;;;;;;5070616;28;20473;-63
2023/07/14 10:12:47;;;;;;;4.55;2.00;;;25.30;49.80;;;;;;5070195;28;20039;-63
2023/07/14 10:15:33;;;;;;;7.10;2.42;;;25.40;49.80;;;;;;5067398;28;20063;-64
2023/07/14 10:18:19;;;;;;;6.28;2.38;;;25.50;49.70;;;;;;5065999;28;20028;-62
2023/07/14 10:21:06;;;;;;;5.18;2.17;;;25.50;49.60;;;;;;5068659;28;20157;-62
2023/07/14 10:23:33;;;;;;;5.88;2.15;;;25.60;49.40;;;;;;5069104;28;20103;-63
2023/07/14 10:26:00;;;;;;;4.72;2.10;;;25.70;49.20;;;;;;5066570;28;20121;-63
2023/07/14 10:28:29;;;;;;;4.90;2.05;;;25.80;49.00;;;;;;5067006;28;20354;-63
2023/07/14 10:31:00;;;;;;;7.70;2.35;;;25.80;49.00;;;;;;5067535;28;20353;-63
2023/07/14 10:33:36;;;;;;;6.35;2.47;;;25.70;49.10;;;;;;5067984;28;20102;-63
2023/07/14 10:36:19;;;;;;;7.10;2.22;;;25.70;49.10;;;;;;5065428;28;20402;-62
2023/07/14 10:39:13;;;;;;;5.47;2.20;;;25.70;49.00;;;;;;5063702;28;20028;-63
2023/07/14 10:41:45;;;;;;;5.40;2.00;;;25.70;49.00;;;;;;5038093;28;20055;-62
2023/07/14 10:44:43;;;;;;;6.85;2.30;;;25.80;49.00;;;;;;5068756;28;20032;-63
2023/07/14 10:47:20;;;;;;;7.45;2.13;;;25.80;48.70;;;;;;5055348;28;20037;-63
2023/07/14 10:50:16;;;;;;;5.18;2.20;;;25.70;48.80;;;;;;5069552;28;20120;-63
2023/07/14 10:52:47;;;;;;;5.72;2.50;;;25.70;49.00;;;;;;5027664;28;20042;-63
2023/07/14 10:55:23;;;;;;;4.68;2.22;;;25.50;49.60;;;;;;5066277;28;20028;-63
2023/07/14 10:58:00;;;;;;;7.50;2.25;;;25.40;49.80;;;;;;5062705;28;20302;-63
2023/07/14 11:00:32;;;;;;;6.55;2.30;;;25.30;49.70;;;;;;5066255;28;20024;-62
2023/07/14 11:03:30;;;;;;;4.40;2.28;;;25.20;49.90;;;;;;5069918;28;20016;-62
2023/07/14 11:06:19;;;;;;;7.00;2.42;;;25.20;49.40;;;;;;5051341;28;20102;-62
2023/07/14 11:08:53;;;;;;;5.63;2.30;;;25.10;49.40;;;;;;5066859;28;20361;-62
2023/07/14 11:11:33;;;;;;;7.03;2.15;;;25.10;49.10;;;;;;5070793;28;20166;-63
2023/07/14 11:14:25;;;;;;;4.88;2.10;;;25.10;49.30;;;;;;5068388;28;20021;-63
2023/07/14 11:17:03;;;;;;;7.68;2.00;;;25.10;49.30;;;;;;5071188;28;20044;-64
2023/07/14 11:19:39;;;;;;;6.15;2.10;;;25.10;49.00;;;;;;5069785;28;20029;-63
2023/07/14 11:22:23;;;;;;;6.93;2.13;;;25.10;49.00;;;;;;5071946;28;20405;-64
2023/07/14 11:25:00;;;;;;;5.90;2.10;;;25.10;49.10;;;;;;5071881;28;20075;-64
2023/07/14 11:27:58;;;;;;;9.63;2.53;;;25.10;49.30;;;;;;5072602;28;20033;-63
2023/07/14 11:30:34;;;;;;;7.70;2.75;;;25.00;49.50;;;;;;5041399;28;20086;-63
2023/07/14 11:33:17;;;;;;;11.45;2.22;;;25.00;49.60;;;;;;5071200;28;20400;-63
2023/07/14 11:36:17;;;;;;;4.82;1.90;;;24.90;50.00;;;;;;5043753;28;20116;-64
2023/07/14 11:39:03;;;;;;;5.47;2.28;;;24.90;50.30;;;;;;5053471;28;20433;-63
2023/07/14 11:41:31;;;;;;;5.15;2.08;;;25.00;50.00;;;;;;5070875;28;20454;-63
2023/07/14 11:44:00;;;;;;;6.68;2.13;;;24.90;50.00;;;;;;5071987;28;20078;-63
2023/07/14 11:46:26;;;;;;;6.25;2.33;;;25.00;50.20;;;;;;5073861;28;20025;-63
2023/07/14 11:48:52;;;;;;;5.78;2.35;;;24.90;50.50;;;;;;5052404;28;20212;-63
2023/07/14 11:51:20;;;;;;;5.57;1.95;;;24.90;50.40;;;;;;5069652;28;20013;-63
2023/07/14 11:54:05;;;;;;;6.20;2.70;;;24.90;50.40;;;;;;5072928;28;20035;-63
2023/07/14 11:56:38;;;;;;;6.60;2.40;;;25.10;50.20;;;;;;5074067;28;20028;-63
2023/07/14 11:59:26;;;;;;;7.20;2.78;;;25.20;50.20;;;;;;5052921;28;20094;-63
2023/07/14 12:01:54;;;;;;;5.32;2.05;;;25.30;50.20;;;;;;5055600;28;20102;-63
2023/07/14 12:04:30;;;;;;;4.15;2.00;;;25.30;50.40;;;;;;5072213;28;20025;-63
2023/07/14 12:07:15;;;;;;;5.88;2.20;;;25.20;50.30;;;;;;5071059;28;20103;-63
2023/07/14 12:09:57;;;;;;;6.10;2.55;;;25.10;50.50;;;;;;5063729;28;20058;-64
2023/07/14 12:12:23;;;;;;;5.43;2.38;;;25.00;50.90;;;;;;5073251;28;20039;-63
2023/07/14 12:14:50;;;;;;;6.88;2.67;;;24.80;51.10;;;;;;5054710;28;20403;-63
2023/07/14 12:17:36;;;;;;;5.70;2.30;;;24.80;51.20;;;;;;5073460;28;20056;-63
2023/07/14 12:20:11;;;;;;;5.22;2.20;;;24.80;50.80;;;;;;5065120;28;20072;-63
2023/07/14 12:22:42;;;;;;;5.28;2.30;;;24.90;51.40;;;;;;5049969;28;20033;-63
2023/07/14 12:25:17;;;;;;;4.43;2.03;;;25.00;50.90;;;;;;5070514;28;20101;-63
2023/07/14 12:27:52;;;;;;;5.50;2.55;;;25.20;50.90;;;;;;5070482;28;20457;-63
2023/07/14 12:30:19;;;;;;;6.03;2.47;;;25.40;50.50;;;;;;5073501;28;20028;-63
2023/07/14 12:32:46;;;;;;;6.97;2.33;;;25.50;50.70;;;;;;5075163;28;20032;-63
2023/07/14 12:35:14;;;;;;;5.90;2.08;;;25.60;50.60;;;;;;5076560;28;20111;-63
2023/07/14 12:37:39;;;;;;;6.07;2.20;;;25.70;50.50;;;;;;5077480;28;20327;-63
2023/07/14 12:40:13;;;;;;;7.53;2.40;;;25.70;50.30;;;;;;5076586;28;20112;-63
2023/07/14 12:42:43;;;;;;;5.18;2.15;;;25.70;50.00;;;;;;5040677;28;20027;-63
2023/07/14 12:45:12;;;;;;;6.15;2.28;;;25.80;49.80;;;;;;5075069;28;20116;-63
2023/07/14 12:47:45;;;;;;;5.82;2.33;;;25.80;49.60;;;;;;5077801;28;20139;-63
2023/07/14 12:50:16;;;;;;;7.53;2.58;;;25.90;49.90;;;;;;5075801;28;20414;-63
2023/07/14 12:52:44;;;;;;;4.38;1.90;;;26.00;50.00;;;;;;5075601;28;20051;-63
2023/07/14 12:55:24;;;;;;;6.65;2.20;;;26.00;49.50;;;;;;5042996;28;20360;-63
2023/07/14 12:57:50;;;;;;;4.70;2.03;;;26.10;49.30;;;;;;5053529;28;20029;-63
2023/07/14 13:00:17;;;;;;;7.45;2.60;;;26.10;49.10;;;;;;5071780;28;20031;-64
2023/07/14 13:02:48;;;;;;;5.35;2.22;;;26.00;49.00;;;;;;5054689;28;20506;-63
2023/07/14 13:05:15;;;;;;;7.45;2.30;;;26.00;48.60;;;;;;5076480;28;20342;-63